Time,TemperatureF,DewpointF,PressureIn,WindDirection,WindDirectionDegrees,WindSpeedMPH,WindSpeedGustMPH,Humidity,HourlyPrecipIn,Conditions,Clouds,dailyrainin,SoftwareType,DateUTC
2016-02-06 00:13:00,21.6,21.1,30.11,SSW,202,1.7,-999.0,98,-99.99,,,0.00,Acu-Link.com,2016-02-06 05:13:00,
2016-02-06 00:28:00,21.9,21.4,30.10,SE,135,0.0,-999.0,98,-99.99,,,0.00,Acu-Link.com,2016-02-06 05:28:00,
2016-02-06 00:43:00,21.4,20.9,30.10,ESE,112,0.0,-999.0,98,-99.99,,,0.00,Acu-Link.com,2016-02-06 05:43:00,
2016-02-06 00:58:00,21.2,20.7,30.10,ESE,112,0.0,-999.0,98,-99.99,,,0.00,Acu-Link.com,2016-02-06 05:58:00,
2016-02-06 01:13:00,20.7,20.2,30.10,SE,135,0.0,-999.0,98,-99.99,,,0.00,Acu-Link.com,2016-02-06 06:13:00,
2016-02-06 01:28:00,20.5,20.0,30.10,ESE,112,1.1,-999.0,98,-99.99,,,0.00,Acu-Link.com,2016-02-06 06:28:00,
2016-02-06 01:44:00,20.3,19.8,30.10,SSW,202,0.0,-999.0,98,-99.99,,,0.00,Acu-Link.com,2016-02-06 06:44:00,
2016-02-06 01:59:00,19.8,19.3,30.11,ESE,112,2.2,-999.0,98,-99.99,,,0.00,Acu-Link.com,2016-02-06 06:59:00,
2016-02-06 02:14:00,19.9,19.4,30.10,SSW,202,0.0,-999.0,98,-99.99,,,0.00,Acu-Link.com,2016-02-06 07:14:00,
2016-02-06 02:30:00,19.6,19.1,30.11,SSW,202,0.0,-999.0,98,-99.99,,,0.00,Acu-Link.com,2016-02-06 07:30:00,
2016-02-06 02:45:00,19.2,18.7,30.11,SSW,202,0.0,-999.0,98,-99.99,,,0.00,Acu-Link.com,2016-02-06 07:45:00,
2016-02-06 03:00:00,19.0,18.5,30.10,SSW,202,0.0,-999.0,98,-99.99,,,0.00,Acu-Link.com,2016-02-06 08:00:00,
2016-02-06 03:15:00,18.7,18.2,30.10,SSW,202,0.0,-999.0,98,-99.99,,,0.00,Acu-Link.com,2016-02-06 08:15:00,
2016-02-06 03:30:00,18.5,18.0,30.11,SSW,202,0.0,-999.0,98,-99.99,,,0.00,Acu-Link.com,2016-02-06 08:30:00,
2016-02-06 03:46:00,18.3,17.8,30.11,ESE,112,0.0,-999.0,98,-99.99,,,0.00,Acu-Link.com,2016-02-06 08:46:00,
2016-02-06 04:01:00,18.3,17.8,30.11,ESE,112,0.0,-999.0,98,-99.99,,,0.00,Acu-Link.com,2016-02-06 09:01:00,
2016-02-06 04:16:00,18.1,17.6,30.10,SSE,157,0.0,-999.0,98,-99.99,,,0.00,Acu-Link.com,2016-02-06 09:16:00,
2016-02-06 04:32:00,18.0,17.5,30.10,SSE,157,0.0,-999.0,98,-99.99,,,0.00,Acu-Link.com,2016-02-06 09:32:00,
2016-02-06 04:47:00,17.8,17.3,30.10,SSE,157,0.0,-999.0,98,-99.99,,,0.00,Acu-Link.com,2016-02-06 09:47:00,
2016-02-06 05:02:00,18.0,17.5,30.10,SSW,202,0.0,-999.0,98,-99.99,,,0.00,Acu-Link.com,2016-02-06 10:02:00,
2016-02-06 07:17:00,17.1,16.6,30.12,WNW,292,0.0,-999.0,98,-99.99,,,0.00,Acu-Link.com,2016-02-06 12:17:00,
2016-02-06 07:39:00,18.1,17.6,30.12,WNW,292,0.0,-999.0,98,-99.99,,,0.00,Acu-Link.com,2016-02-06 12:39:00,
2016-02-06 07:54:00,19.2,18.7,30.12,WNW,292,0.0,-999.0,98,-99.99,,,0.00,Acu-Link.com,2016-02-06 12:54:00,
2016-02-06 09:46:00,30.2,29.7,30.11,ENE,67,0.0,-999.0,98,-99.99,,,0.00,Acu-Link.com,2016-02-06 14:46:00,
2016-02-06 10:01:00,32.0,31.5,30.10,WSW,247,1.7,-999.0,98,-99.99,,,0.00,Acu-Link.com,2016-02-06 15:01:00,
2016-02-06 10:17:00,34.3,33.8,30.10,North,0,0.0,-999.0,98,-99.99,,,0.00,Acu-Link.com,2016-02-06 15:17:00,
2016-02-06 10:32:00,35.2,34.7,30.09,ESE,112,0.0,-999.0,98,-99.99,,,0.00,Acu-Link.com,2016-02-06 15:32:00,
2016-02-06 10:57:00,35.4,34.9,30.08,ENE,67,1.1,-999.0,98,-99.99,,,0.00,Acu-Link.com,2016-02-06 15:57:00,
2016-02-06 11:36:00,40.1,39.6,30.06,SSW,202,2.2,-999.0,98,-99.99,,,0.00,Acu-Link.com,2016-02-06 16:36:00,
2016-02-06 11:53:00,42.6,42.1,30.05,NW,315,3.7,-999.0,98,-99.99,,,0.00,Acu-Link.com,2016-02-06 16:53:00,
2016-02-06 12:08:00,41.7,41.2,30.03,South,180,3.7,-999.0,98,-99.99,,,0.00,Acu-Link.com,2016-02-06 17:08:00,
2016-02-06 12:24:00,42.1,41.6,30.02,SSW,202,3.2,-999.0,98,-99.99,,,0.00,Acu-Link.com,2016-02-06 17:24:00,
2016-02-06 12:40:00,41.4,40.9,30.02,SSW,202,3.7,-999.0,98,-99.99,,,0.00,Acu-Link.com,2016-02-06 17:40:00,
2016-02-06 12:58:00,43.0,42.5,30.01,NNW,337,5.8,-999.0,98,-99.99,,,0.00,Acu-Link.com,2016-02-06 17:58:00,
2016-02-06 13:13:00,42.3,41.8,30.00,WSW,247,5.8,-999.0,98,-99.99,,,0.00,Acu-Link.com,2016-02-06 18:13:00,
2016-02-06 13:28:00,42.4,41.9,29.99,ESE,112,1.7,-999.0,98,-99.99,,,0.00,Acu-Link.com,2016-02-06 18:28:00,
2016-02-06 13:43:00,42.8,42.3,29.98,SW,225,6.8,-999.0,98,-99.99,,,0.00,Acu-Link.com,2016-02-06 18:43:00,
2016-02-06 13:58:00,45.7,45.2,29.97,SSW,202,8.3,-999.0,98,-99.99,,,0.00,Acu-Link.com,2016-02-06 18:58:00,
2016-02-06 14:13:00,46.6,46.1,29.96,SSW,202,4.2,-999.0,98,-99.99,,,0.00,Acu-Link.com,2016-02-06 19:13:00,
2016-02-06 14:28:00,47.1,46.6,29.97,WSW,247,1.7,-999.0,98,-99.99,,,0.00,Acu-Link.com,2016-02-06 19:28:00,
2016-02-06 14:59:00,43.5,43.0,29.96,SSW,202,3.7,-999.0,98,-99.99,,,0.00,Acu-Link.com,2016-02-06 19:59:00,
2016-02-06 15:14:00,43.0,42.5,29.96,WSW,247,3.2,-999.0,98,-99.99,,,0.00,Acu-Link.com,2016-02-06 20:14:00,
2016-02-06 15:29:00,42.6,42.1,29.96,South,180,2.2,-999.0,98,-99.99,,,0.00,Acu-Link.com,2016-02-06 20:29:00,
2016-02-06 15:44:00,42.6,41.0,29.96,WNW,292,5.3,-999.0,94,-99.99,,,0.00,Acu-Link.com,2016-02-06 20:44:00,
2016-02-06 16:00:00,42.3,39.6,29.96,SSE,157,3.2,-999.0,90,-99.99,,,0.00,Acu-Link.com,2016-02-06 21:00:00,
2016-02-06 16:15:00,43.0,40.3,29.96,SE,135,3.7,-999.0,90,-99.99,,,0.00,Acu-Link.com,2016-02-06 21:15:00,
2016-02-06 16:30:00,42.1,38.2,29.96,WNW,292,6.3,-999.0,86,-99.99,,,0.00,Acu-Link.com,2016-02-06 21:30:00,
2016-02-06 16:45:00,40.6,35.8,29.96,West,270,3.2,-999.0,83,-99.99,,,0.00,Acu-Link.com,2016-02-06 21:45:00,
2016-02-06 17:01:00,39.0,33.7,29.96,SSW,202,2.2,-999.0,81,-99.99,,,0.00,Acu-Link.com,2016-02-06 22:01:00,
2016-02-06 17:16:00,37.8,31.9,29.97,SSW,202,3.2,-999.0,79,-99.99,,,0.00,Acu-Link.com,2016-02-06 22:16:00,
2016-02-06 17:31:00,36.9,31.0,29.96,South,180,1.1,-999.0,79,-99.99,,,0.00,Acu-Link.com,2016-02-06 22:31:00,
2016-02-06 17:46:00,36.3,30.1,29.97,South,180,3.2,-999.0,78,-99.99,,,0.00,Acu-Link.com,2016-02-06 22:46:00,
2016-02-06 18:01:00,36.0,30.1,29.97,SSW,202,3.2,-999.0,79,-99.99,,,0.00,Acu-Link.com,2016-02-06 23:01:00,
2016-02-06 18:17:00,36.0,30.1,29.97,SSW,202,3.2,-999.0,79,-99.99,,,0.00,Acu-Link.com,2016-02-06 23:17:00,
2016-02-06 18:32:00,36.1,30.2,29.98,South,180,2.2,-999.0,79,-99.99,,,0.00,Acu-Link.com,2016-02-06 23:32:00,
2016-02-06 18:47:00,36.1,30.2,29.98,South,180,3.7,-999.0,79,-99.99,,,0.00,Acu-Link.com,2016-02-06 23:47:00,
2016-02-06 19:03:00,36.1,30.2,29.98,South,180,3.7,-999.0,79,-99.99,,,0.00,Acu-Link.com,2016-02-07 00:03:00,
2016-02-06 19:18:00,36.1,30.2,29.98,SSW,202,3.2,-999.0,79,-99.99,,,0.00,Acu-Link.com,2016-02-07 00:18:00,
2016-02-06 19:33:00,36.0,29.8,29.98,SSW,202,4.2,-999.0,78,-99.99,,,0.00,Acu-Link.com,2016-02-07 00:33:00,
2016-02-06 19:49:00,35.4,29.2,29.98,SSW,202,4.2,-999.0,78,-99.99,,,0.00,Acu-Link.com,2016-02-07 00:49:00,